Terminal Aerodrome Forecast
Issued by NWS Topeka, KS

Home | Current Version | Previous Version | Text Only | Print | Product List | Glossary On
Versions: 1 2 3 4 5 6 7 8 9 10 11 12 13 14 15 16 17 18 19 20 21 22 23
000
FTUS43 KTOP 061100
TAFTOP
TAF
KTOP 061120Z 0612/0712 13017KT 5SM -SHRA SCT025 BKN050
     FM061600 17015G24KT P6SM VCSH BKN030
     FM061800 16018G30KT P6SM SCT030 BKN080
     FM062300 16017KT P6SM BKN050
     FM070500 16015KT P6SM VCTS BKN040CB=

USA.gov is the U.S. government's official web portal to all federal, state and local government web resources and services.